Portada
METAR-TAF:

METAR-TAF

Aeropuertos :

Mécheria, Argelia

latitud: 34-56N, longitud: 000-26W, altitud: 1149 m

Observación

El informe se hizo hace 55 minutos, a las 18:00 UTC
Viento 6 kt del sur
Temperatura 20°C
Humedad 30%
Presión 1028 hPa
Visibilidad 10 km o más
Escasas nubes a una altura de 3300 ft

METAR: DAAY 191800Z 18006KT 9999 FEW033 20/02 Q1028

Hora: 19:55 (18:55 UTC)

Pronóstico

El informe se hizo hace 1 hora y 55 minutos, a las 17:00 UTC
Pronóstico válido del 19 a las 18 UTC al 20 a las 03 UTC
Viento 10 kt del sureste
Visibilidad 10 km o más
Escasas nubes a una altura de 3300 ft
Evolucionando progresivamente
del 19 a las 22 UTC al 19 a las 24 UTC
Viento 2 kt con dirección variable
Visibilidad 10 km o más
sin nubes por debajo de 1500 m y sin presencia de cumulonimbus.

TAF: DAAY 191700Z 1918/2003 13010KT 9999 FEW033 BECMG 1922/1924 VRB02KT CAVOK

Observaciones y pronósticos meteorológicos de más de 4000 aeropuertos (mensajes METAR y TAF).

Los puntos amarillos y rojos representan las estaciones disponibles.

Ponga el ratón en el punto deseado para ver el nombre de la estación.

Haga clic para ver las observaciones y los pronósticos meteorológicos.

Para cambiar el mapa : haga clic en los botones verdes con una cruz de color negro para hacer un zoom, en el botón verde con un guión para alejar o en las flechas verdes para mapas adyacentes.


METAR-TAF: